Tony Lippman — WDC2428 — position and weather

sailwx.info

Track history (hours):
 
Tides and Currents Weather Stations Pressure Air Temp Water Temp Dewpoint Dewpoint Depression Visibility Wind Speed Wind Dir Waves Ship Positions

Tony Lippman

Owner: Florida Marine, LLC, Mandeville, LA. More information available from US FCC via Universal Licensing System and Coast Guard Vessel Documentation Center.

Last reported at 2017-Nov-15 09:14 UTC. Time now 2017-Nov-21 13:46 UTC.
Position N 31°43' W 091°23'.

Length 44 m; draft 2.6 m.

Type: Towing. MMSI: 366993020.

Date/timePositionNaut miles runAvg speedWind from/ knotsBaromVisibWave heightAir tempDewpointWater temp
2017-Nov-15 09:14N 31°43' W 091°23'7 9.7
2017-Nov-15 08:31N 31°50' W 091°21'011.7
2017-Nov-15 08:30N 31°50' W 091°21'11 8.7
2017-Nov-15 07:13N 31°58' W 091°11'3 8.1
2017-Nov-15 06:49N 31°59' W 091°08'3 8.6
2017-Nov-15 06:30N 32°00' W 091°05'5 9.8
2017-Nov-15 05:58N 32°05' W 091°05'3 4.5
2017-Nov-15 05:24N 32°08' W 091°05'2 5.4
2017-Nov-15 05:00N 32°07' W 091°02'3 6.8
2017-Nov-15 04:30N 32°10' W 091°00'5 9.2
2017-Nov-15 04:00N 32°14' W 090°59'510.7
2017-Nov-15 03:31N 32°18' W 090°55'3 6.0
2017-Nov-15 03:00N 32°21' W 090°57'3 6.7
2017-Nov-15 02:30N 32°23' W 090°60'4 7.6
2017-Nov-15 02:00N 32°26' W 091°03'4 9.0
2017-Nov-15 01:30N 32°29' W 091°07'5 9.5
2017-Nov-15 01:00N 32°33' W 091°06'5 9.1
2017-Nov-15 00:28N 32°37' W 091°09'3 0.1
2017-Nov-14 02:29N 32°40' W 091°08'3 6.0
2017-Nov-14 02:00N 32°37' W 091°09'3 6.7
2017-Nov-14 01:31N 32°35' W 091°07'3 6.2
2017-Nov-14 00:59N 32°31' W 091°06'3 7.0
2017-Nov-14 00:30N 32°28' W 091°06'4 7.2
2017-Nov-14 00:00N 32°26' W 091°03'3 6.7
2017-Nov-13 23:31N 32°24' W 090°59'3 5.9
2017-Nov-13 23:01N 32°21' W 090°60'4 7.2
2017-Nov-13 22:30N 32°21' W 090°55'2 4.9
2017-Nov-13 22:01N 32°18' W 090°55'  
2017-Nov-08 05:23N 32°01' W 091°05'6 9.2
2017-Nov-08 04:46N 32°06' W 091°06'2 7.0
2017-Nov-08 04:28N 32°08' W 091°05'4 9.0
2017-Nov-08 04:00N 32°08' W 091°00'510.9
2017-Nov-08 03:31N 32°14' W 090°59'510.5
2017-Nov-08 03:01N 32°18' W 090°55'3 6.4
2017-Nov-08 02:31N 32°21' W 090°57'4 7.2
2017-Nov-08 02:00N 32°24' W 090°59'5 9.7
2017-Nov-08 01:30N 32°26' W 091°04'5 9.8
2017-Nov-08 01:01N 32°31' W 091°06'510.1
2017-Nov-08 00:30N 32°36' W 091°08'4 0.2
2017-Nov-07 02:53N 32°40' W 091°08'3 6.2
2017-Nov-07 02:20N 32°37' W 091°09'0 1.1
2017-Nov-07 02:01N 32°37' W 091°09'2 3.0
2017-Nov-07 01:31N 32°35' W 091°08'3 5.8
2017-Nov-07 01:00N 32°33' W 091°06'3 5.4
2017-Nov-07 00:30N 32°31' W 091°07'3 5.8
2017-Nov-07 00:01N 32°28' W 091°06'3 6.2
2017-Nov-06 23:31N 32°26' W 091°03'3 5.9
2017-Nov-06 23:00N 32°25' W 090°60'3 5.3
2017-Nov-06 22:30N 32°22' W 091°00'2 4.5
2017-Nov-06 22:00N 32°21' W 090°58'1 2.3
2017-Nov-06 21:31N 32°21' W 090°57'3 5.3
2017-Nov-06 21:01N 32°19' W 090°54'3 6.9
2017-Nov-06 20:30N 32°17' W 090°57'  
Track history (hours):
 
Tides and Currents Weather Stations Pressure Air Temp Water Temp Dewpoint Dewpoint Depression Visibility Wind Speed Wind Dir Waves Ship Positions

Tony Lippman

Owner: Florida Marine, LLC, Mandeville, LA. More information available from US FCC via Universal Licensing System and Coast Guard Vessel Documentation Center.

Last reported at 2017-Nov-15 09:14 UTC. Time now 2017-Nov-21 13:46 UTC.
Position N 31°43' W 091°23'.

Length 44 m; draft 2.6 m.

Type: Towing. MMSI: 366993020.

Date/timePositionNaut miles runAvg speedWind from/ knotsBaromVisibWave heightAir tempDewpointWater temp
2017-Nov-15 09:14N 31°43' W 091°23'7 9.7
2017-Nov-15 08:31N 31°50' W 091°21'011.7
2017-Nov-15 08:30N 31°50' W 091°21'11 8.7
2017-Nov-15 07:13N 31°58' W 091°11'3 8.1
2017-Nov-15 06:49N 31°59' W 091°08'3 8.6
2017-Nov-15 06:30N 32°00' W 091°05'5 9.8
2017-Nov-15 05:58N 32°05' W 091°05'3 4.5
2017-Nov-15 05:24N 32°08' W 091°05'2 5.4
2017-Nov-15 05:00N 32°07' W 091°02'3 6.8
2017-Nov-15 04:30N 32°10' W 091°00'5 9.2
2017-Nov-15 04:00N 32°14' W 090°59'510.7
2017-Nov-15 03:31N 32°18' W 090°55'3 6.0
2017-Nov-15 03:00N 32°21' W 090°57'3 6.7
2017-Nov-15 02:30N 32°23' W 090°60'4 7.6
2017-Nov-15 02:00N 32°26' W 091°03'4 9.0
2017-Nov-15 01:30N 32°29' W 091°07'5 9.5
2017-Nov-15 01:00N 32°33' W 091°06'5 9.1
2017-Nov-15 00:28N 32°37' W 091°09'3 0.1
2017-Nov-14 02:29N 32°40' W 091°08'3 6.0
2017-Nov-14 02:00N 32°37' W 091°09'3 6.7
2017-Nov-14 01:31N 32°35' W 091°07'3 6.2
2017-Nov-14 00:59N 32°31' W 091°06'3 7.0
2017-Nov-14 00:30N 32°28' W 091°06'4 7.2
2017-Nov-14 00:00N 32°26' W 091°03'3 6.7
2017-Nov-13 23:31N 32°24' W 090°59'3 5.9
2017-Nov-13 23:01N 32°21' W 090°60'4 7.2
2017-Nov-13 22:30N 32°21' W 090°55'2 4.9
2017-Nov-13 22:01N 32°18' W 090°55'  
2017-Nov-08 05:23N 32°01' W 091°05'6 9.2
2017-Nov-08 04:46N 32°06' W 091°06'2 7.0
2017-Nov-08 04:28N 32°08' W 091°05'4 9.0
2017-Nov-08 04:00N 32°08' W 091°00'510.9
2017-Nov-08 03:31N 32°14' W 090°59'510.5
2017-Nov-08 03:01N 32°18' W 090°55'3 6.4
2017-Nov-08 02:31N 32°21' W 090°57'4 7.2
2017-Nov-08 02:00N 32°24' W 090°59'5 9.7
2017-Nov-08 01:30N 32°26' W 091°04'5 9.8
2017-Nov-08 01:01N 32°31' W 091°06'510.1
2017-Nov-08 00:30N 32°36' W 091°08'4 0.2
2017-Nov-07 02:53N 32°40' W 091°08'3 6.2
2017-Nov-07 02:20N 32°37' W 091°09'0 1.1
2017-Nov-07 02:01N 32°37' W 091°09'2 3.0
2017-Nov-07 01:31N 32°35' W 091°08'3 5.8
2017-Nov-07 01:00N 32°33' W 091°06'3 5.4
2017-Nov-07 00:30N 32°31' W 091°07'3 5.8
2017-Nov-07 00:01N 32°28' W 091°06'3 6.2
2017-Nov-06 23:31N 32°26' W 091°03'3 5.9
2017-Nov-06 23:00N 32°25' W 090°60'3 5.3
2017-Nov-06 22:30N 32°22' W 091°00'2 4.5
2017-Nov-06 22:00N 32°21' W 090°58'1 2.3
2017-Nov-06 21:31N 32°21' W 090°57'3 5.3
2017-Nov-06 21:01N 32°19' W 090°54'3 6.9
2017-Nov-06 20:30N 32°17' W 090°57'  

Dump ship's entire track history